Time;durP1;ratioP1;P1;durP2;ratioP2;P2;SDS_P1;SDS_P2;PMS_P1;PMS_P2;Temp;Humidity;BMP_temperature;BMP_pressure;BME280_temperature;BME280_humidity;BME280_pressure;Samples;Min_cycle;Max_cycle;Signal;HPM_P1;HPM_P2
2023/10/14 00:02:12;;;;;;;4.07;0.73;;;16.60;87.30;;;;;;9170224;19;20042;-75
2023/10/14 00:05:20;;;;;;;6.30;1.30;;;16.50;87.30;;;;;;9172025;19;20011;-76
2023/10/14 00:08:31;;;;;;;2.00;0.65;;;16.50;87.40;;;;;;9174141;19;20007;-76
2023/10/14 00:11:42;;;;;;;4.47;0.75;;;16.50;87.40;;;;;;9173664;19;20026;-75
2023/10/14 00:14:53;;;;;;;1.05;0.22;;;16.50;87.50;;;;;;9178967;19;20015;-74
2023/10/14 00:18:00;;;;;;;2.75;0.50;;;16.40;87.50;;;;;;9171794;19;20531;-75
2023/10/14 00:21:14;;;;;;;2.92;0.82;;;16.40;87.40;;;;;;9172083;19;20021;-73
2023/10/14 00:24:28;;;;;;;2.65;0.35;;;16.40;87.40;;;;;;9170729;19;20447;-74
2023/10/14 00:27:36;;;;;;;2.92;0.55;;;16.30;87.30;;;;;;9169677;19;20018;-73
2023/10/14 00:30:42;;;;;;;1.95;0.30;;;16.30;87.30;;;;;;9164793;19;20464;-74
2023/10/14 00:33:52;;;;;;;5.38;0.68;;;16.20;87.30;;;;;;9165168;19;20014;-73
2023/10/14 00:37:00;;;;;;;0.85;0.25;;;16.20;87.40;;;;;;9164248;19;20437;-73
2023/10/14 00:40:22;;;;;;;1.88;0.57;;;16.20;87.40;;;;;;9165629;19;20025;-74
2023/10/14 00:43:28;;;;;;;3.60;0.40;;;16.20;87.50;;;;;;9168793;19;20099;-73
2023/10/14 00:46:38;;;;;;;1.20;0.32;;;16.10;87.50;;;;;;9168354;19;20015;-74
2023/10/14 00:49:48;;;;;;;2.28;0.60;;;16.10;87.40;;;;;;9173200;19;20029;-73
2023/10/14 00:53:00;;;;;;;2.45;0.52;;;16.10;87.50;;;;;;9170197;19;20017;-73
2023/10/14 00:56:06;;;;;;;1.90;0.47;;;16.00;87.50;;;;;;9171861;19;20030;-73
2023/10/14 00:59:15;;;;;;;3.90;0.68;;;16.00;87.50;;;;;;9170441;19;21223;-72
2023/10/14 01:02:26;;;;;;;2.20;0.45;;;16.00;87.50;;;;;;9171779;19;20397;-73
2023/10/14 01:05:35;;;;;;;0.77;0.70;;;16.00;87.60;;;;;;9172181;19;20010;-73
2023/10/14 01:08:44;;;;;;;1.90;0.40;;;15.90;87.60;;;;;;9172147;19;20014;-72
2023/10/14 01:11:52;;;;;;;1.85;0.52;;;15.90;87.60;;;;;;9169356;19;20010;-72
2023/10/14 01:15:04;;;;;;;5.05;0.55;;;15.90;87.60;;;;;;9172824;19;20466;-74
2023/10/14 01:18:14;;;;;;;1.92;0.70;;;15.90;87.60;;;;;;9170880;19;20687;-72
2023/10/14 01:21:20;;;;;;;6.30;0.60;;;15.80;87.60;;;;;;9171005;19;20423;-71
2023/10/14 01:24:38;;;;;;;3.85;0.60;;;15.80;87.50;;;;;;9171819;19;20029;-73
2023/10/14 01:27:44;;;;;;;3.42;0.82;;;15.70;87.30;;;;;;9169948;19;20025;-73
2023/10/14 01:31:23;;;;;;;2.55;0.60;;;15.60;87.40;;;;;;9167560;19;20372;-73
2023/10/14 01:34:41;;;;;;;4.03;0.75;;;15.60;87.40;;;;;;9170035;19;20425;-73
2023/10/14 01:37:49;;;;;;;6.43;1.25;;;15.50;87.40;;;;;;9171034;19;20014;-72
2023/10/14 01:40:58;;;;;;;4.53;0.90;;;15.50;87.40;;;;;;9168732;19;20018;-77
2023/10/14 01:44:09;;;;;;;3.90;1.10;;;15.40;87.30;;;;;;9167385;19;20417;-76
2023/10/14 01:47:17;;;;;;;6.30;1.27;;;15.40;87.40;;;;;;9168887;19;20037;-77
2023/10/14 01:50:25;;;;;;;9.18;1.35;;;15.30;87.40;;;;;;9169297;19;20456;-75
2023/10/14 01:53:35;;;;;;;3.78;1.23;;;15.30;87.40;;;;;;9165352;19;20022;-76
2023/10/14 01:56:46;;;;;;;5.97;1.20;;;15.30;87.40;;;;;;9166652;19;20488;-77
2023/10/14 01:59:53;;;;;;;5.80;1.17;;;15.30;87.50;;;;;;9166777;19;20014;-76
2023/10/14 02:03:06;;;;;;;3.60;1.20;;;15.20;87.50;;;;;;9168605;19;20018;-77
2023/10/14 02:06:16;;;;;;;8.15;1.50;;;15.20;87.50;;;;;;9167559;19;20014;-76
2023/10/14 02:09:29;;;;;;;12.10;1.60;;;15.20;87.50;;;;;;9165974;19;20018;-76
2023/10/14 02:12:37;;;;;;;8.88;1.73;;;15.10;87.50;;;;;;9165702;19;20067;-76
2023/10/14 02:15:48;;;;;;;10.23;1.95;;;15.10;87.50;;;;;;9167020;19;20011;-76
2023/10/14 02:19:16;;;;;;;11.77;1.63;;;15.00;87.50;;;;;;9166281;19;20522;-74
2023/10/14 02:22:24;;;;;;;12.40;1.83;;;15.10;87.60;;;;;;9166418;19;20010;-76
2023/10/14 02:25:31;;;;;;;5.03;1.33;;;15.00;87.50;;;;;;9166798;19;20033;-74
2023/10/14 02:28:45;;;;;;;7.95;1.40;;;15.00;87.50;;;;;;9162633;19;20014;-74
2023/10/14 02:31:51;;;;;;;15.40;1.60;;;15.00;87.50;;;;;;9166366;19;20397;-75
2023/10/14 02:34:58;;;;;;;10.18;1.63;;;14.90;87.60;;;;;;9167520;19;20017;-74
2023/10/14 02:38:04;;;;;;;11.05;1.80;;;14.90;87.40;;;;;;9165605;19;20011;-75
2023/10/14 02:41:15;;;;;;;14.52;2.50;;;14.90;87.40;;;;;;9164618;19;20017;-75
2023/10/14 02:44:28;;;;;;;12.32;2.20;;;14.90;87.50;;;;;;9164314;19;20023;-74
2023/10/14 02:47:38;;;;;;;8.73;1.52;;;14.80;87.40;;;;;;9165766;19;20018;-74
2023/10/14 02:50:50;;;;;;;10.32;1.20;;;14.80;87.40;;;;;;9165907;19;20258;-74
2023/10/14 02:54:04;;;;;;;14.20;1.90;;;14.80;87.40;;;;;;9162360;19;20030;-74
2023/10/14 02:57:23;;;;;;;7.00;1.38;;;14.70;87.40;;;;;;9162276;19;20010;-74
2023/10/14 03:00:33;;;;;;;16.23;1.58;;;14.70;87.40;;;;;;9163797;19;20018;-74
2023/10/14 03:03:42;;;;;;;10.13;1.75;;;14.70;87.80;;;;;;9163101;19;20601;-74
2023/10/14 03:06:53;;;;;;;11.35;1.52;;;14.70;88.00;;;;;;9163714;19;20019;-73
2023/10/14 03:10:11;;;;;;;8.38;1.80;;;14.60;87.40;;;;;;9162634;19;20014;-74
2023/10/14 03:13:19;;;;;;;11.70;2.00;;;14.60;87.40;;;;;;9159744;19;20488;-74
2023/10/14 03:16:29;;;;;;;10.90;1.42;;;14.50;87.40;;;;;;9161652;19;20010;-74
2023/10/14 03:19:37;;;;;;;12.50;1.80;;;14.50;87.40;;;;;;9162929;19;20018;-75
2023/10/14 03:22:44;;;;;;;9.18;1.70;;;14.60;87.80;;;;;;9186996;19;20022;-77
2023/10/14 03:25:53;;;;;;;6.20;1.00;;;14.50;87.50;;;;;;9188257;19;20014;-73
2023/10/14 03:29:04;;;;;;;11.40;1.98;;;14.40;87.50;;;;;;9185593;19;20019;-75
2023/10/14 03:32:16;;;;;;;8.40;1.55;;;14.40;87.50;;;;;;9176732;19;20011;-74
2023/10/14 03:35:27;;;;;;;14.77;2.53;;;14.40;87.50;;;;;;9168666;19;20023;-74
2023/10/14 03:38:41;;;;;;;9.85;1.70;;;14.30;87.40;;;;;;9171885;19;20011;-73
2023/10/14 03:41:52;;;;;;;8.88;2.20;;;14.30;87.40;;;;;;9172033;19;20085;-73
2023/10/14 03:45:00;;;;;;;8.35;1.60;;;14.20;87.30;;;;;;9172485;19;20018;-73
2023/10/14 03:48:09;;;;;;;11.52;3.20;;;14.20;87.30;;;;;;9172137;19;20086;-73
2023/10/14 03:51:24;;;;;;;12.90;1.80;;;14.20;87.70;;;;;;9172271;19;20015;-73
2023/10/14 03:54:35;;;;;;;13.48;1.73;;;14.10;87.30;;;;;;9167700;19;20757;-73
2023/10/14 03:57:43;;;;;;;13.02;2.22;;;14.10;87.20;;;;;;9170811;19;20532;-74
2023/10/14 04:00:49;;;;;;;9.70;1.40;;;14.00;87.20;;;;;;9172545;19;20361;-73
2023/10/14 04:04:03;;;;;;;6.65;1.48;;;14.00;87.30;;;;;;9171289;19;20014;-74
2023/10/14 04:07:16;;;;;;;12.80;1.70;;;14.00;87.30;;;;;;9171455;19;20018;-74
2023/10/14 04:10:25;;;;;;;8.93;1.60;;;13.90;87.30;;;;;;9170535;19;20472;-74
2023/10/14 04:13:34;;;;;;;14.00;1.90;;;13.90;87.30;;;;;;9166953;19;20837;-73
2023/10/14 04:17:08;;;;;;;14.38;2.05;;;13.80;87.20;;;;;;9171338;19;20014;-75
2023/10/14 04:20:21;;;;;;;11.45;1.63;;;13.80;87.20;;;;;;9170853;19;20029;-73
2023/10/14 04:23:30;;;;;;;7.00;1.70;;;13.80;87.20;;;;;;9170999;19;20011;-73
2023/10/14 04:26:41;;;;;;;7.28;1.67;;;13.70;87.20;;;;;;9166782;19;20023;-74
2023/10/14 04:30:02;;;;;;;14.88;2.20;;;13.60;87.10;;;;;;9164412;19;20025;-74
2023/10/14 04:33:22;;;;;;;8.63;1.30;;;13.70;87.20;;;;;;9168945;19;20026;-73
2023/10/14 04:36:53;;;;;;;8.15;1.42;;;13.60;87.20;;;;;;9168751;19;20094;-73
2023/10/14 04:40:02;;;;;;;9.43;1.55;;;13.60;87.20;;;;;;9168565;19;20022;-73
2023/10/14 04:43:19;;;;;;;14.90;2.10;;;13.60;87.10;;;;;;9169864;19;20449;-73
2023/10/14 04:46:32;;;;;;;9.73;1.73;;;13.50;87.40;;;;;;9168448;19;20393;-74
2023/10/14 04:49:42;;;;;;;7.68;1.33;;;13.40;87.10;;;;;;9168884;19;20086;-73
2023/10/14 04:52:50;;;;;;;17.80;2.42;;;13.40;87.10;;;;;;9169530;19;20130;-72
2023/10/14 04:56:01;;;;;;;9.75;2.03;;;13.30;87.00;;;;;;9167638;19;20029;-73
2023/10/14 04:59:07;;;;;;;21.63;3.25;;;13.30;87.00;;;;;;9168974;19;20068;-72
2023/10/14 05:02:20;;;;;;;6.82;1.38;;;13.00;87.60;;;;;;9170099;19;20460;-72
2023/10/14 05:05:30;;;;;;;8.90;1.63;;;13.20;88.00;;;;;;9169738;19;20021;-73
2023/10/14 05:08:48;;;;;;;8.45;1.85;;;13.20;88.00;;;;;;9170233;19;20029;-73
2023/10/14 05:11:54;;;;;;;13.45;1.55;;;13.10;87.20;;;;;;9168123;19;20760;-73
2023/10/14 05:15:11;;;;;;;12.23;2.28;;;13.10;87.20;;;;;;9167600;19;20018;-73
2023/10/14 05:18:27;;;;;;;13.05;2.30;;;13.00;87.20;;;;;;9167591;19;20081;-73
2023/10/14 05:21:42;;;;;;;10.10;1.17;;;13.10;88.50;;;;;;9167811;19;20128;-75
2023/10/14 05:24:54;;;;;;;12.82;1.75;;;13.00;88.90;;;;;;9169531;19;20019;-73
2023/10/14 05:28:06;;;;;;;18.20;1.63;;;12.90;87.00;;;;;;9169615;19;20082;-73
2023/10/14 05:31:13;;;;;;;10.40;1.77;;;12.90;87.20;;;;;;9169790;19;20014;-73
2023/10/14 05:34:24;;;;;;;10.73;2.35;;;12.90;89.90;;;;;;9169601;19;20030;-72
2023/10/14 05:37:31;;;;;;;8.63;2.10;;;12.90;88.40;;;;;;9168578;19;20764;-73
2023/10/14 05:40:42;;;;;;;22.08;3.88;;;12.90;89.50;;;;;;9170529;19;20022;-72
2023/10/14 05:43:49;;;;;;;11.30;1.75;;;12.80;87.10;;;;;;9168136;19;20015;-73
2023/10/14 05:46:57;;;;;;;8.32;1.40;;;12.70;87.10;;;;;;9171277;19;20025;-74
2023/10/14 05:50:06;;;;;;;11.82;1.88;;;12.70;87.20;;;;;;9168809;19;20006;-74
2023/10/14 05:53:16;;;;;;;14.35;1.77;;;12.70;87.20;;;;;;9171120;19;20022;-74
2023/10/14 05:56:27;;;;;;;10.35;1.90;;;12.70;87.30;;;;;;9166864;19;20015;-73
2023/10/14 05:59:36;;;;;;;8.47;2.23;;;12.60;87.10;;;;;;9168772;19;20018;-73
2023/10/14 06:02:43;;;;;;;11.63;1.83;;;12.60;87.20;;;;;;9166923;19;20492;-73
2023/10/14 06:05:51;;;;;;;18.80;2.65;;;12.60;87.20;;;;;;9167449;19;20015;-73
2023/10/14 06:09:00;;;;;;;10.52;2.65;;;12.60;87.30;;;;;;9168893;19;20010;-73
2023/10/14 06:12:12;;;;;;;13.40;1.77;;;12.50;88.80;;;;;;9167423;19;20029;-73
2023/10/14 06:15:18;;;;;;;8.18;2.15;;;12.70;90.00;;;;;;9165981;19;20074;-73
2023/10/14 06:18:26;;;;;;;19.23;2.83;;;13.50;91.60;;;;;;9165239;19;20024;-73
2023/10/14 06:21:33;;;;;;;13.15;2.80;;;12.70;89.90;;;;;;9166591;19;20022;-73
2023/10/14 06:24:41;;;;;;;13.32;2.53;;;12.50;87.30;;;;;;9166516;19;20022;-73
2023/10/14 06:27:50;;;;;;;9.80;1.42;;;12.50;87.90;;;;;;9166705;19;20399;-73
2023/10/14 06:31:00;;;;;;;12.75;3.33;;;12.50;87.40;;;;;;9165199;19;20021;-73
2023/10/14 06:34:08;;;;;;;10.07;2.17;;;12.40;87.20;;;;;;9179634;19;20018;-74
2023/10/14 06:37:16;;;;;;;11.10;2.00;;;12.40;87.20;;;;;;9179648;19;20017;-73
2023/10/14 06:40:22;;;;;;;13.57;2.65;;;12.40;87.30;;;;;;9180521;19;20440;-73
2023/10/14 06:43:33;;;;;;;10.15;1.92;;;12.40;87.30;;;;;;9167127;19;20014;-73
2023/10/14 06:46:41;;;;;;;16.67;2.10;;;12.40;87.40;;;;;;9165268;19;20043;-73
2023/10/14 06:49:50;;;;;;;6.20;1.45;;;12.30;87.40;;;;;;9166406;19;20468;-73
2023/10/14 06:52:58;;;;;;;8.35;1.52;;;12.30;87.40;;;;;;9166067;19;20086;-73
2023/10/14 06:56:11;;;;;;;11.63;2.15;;;12.30;87.50;;;;;;9169655;19;20015;-73
2023/10/14 06:59:19;;;;;;;10.27;2.20;;;12.30;87.40;;;;;;9175056;19;20024;-73
2023/10/14 07:02:26;;;;;;;12.18;2.63;;;12.30;87.40;;;;;;9174161;19;20392;-73
2023/10/14 07:05:43;;;;;;;16.38;2.38;;;12.30;87.50;;;;;;9175414;19;20018;-72
2023/10/14 07:08:51;;;;;;;10.90;1.98;;;12.30;87.50;;;;;;9175952;19;20029;-72
2023/10/14 07:11:56;;;;;;;14.30;2.22;;;12.30;87.50;;;;;;9173206;19;20022;-73
2023/10/14 07:15:12;;;;;;;12.23;1.60;;;12.30;87.50;;;;;;9173046;19;20364;-73
2023/10/14 07:18:23;;;;;;;19.38;1.88;;;12.30;87.70;;;;;;9173706;19;20014;-72
2023/10/14 07:21:31;;;;;;;18.83;2.85;;;12.30;87.60;;;;;;9173894;19;20507;-72
2023/10/14 07:24:38;;;;;;;16.15;3.45;;;12.30;87.60;;;;;;9173244;19;20479;-74
2023/10/14 07:27:45;;;;;;;12.50;3.05;;;12.40;91.20;;;;;;9172826;19;20578;-74
2023/10/14 07:30:57;;;;;;;15.38;2.63;;;12.40;90.40;;;;;;9169684;19;20599;-74
2023/10/14 07:34:08;;;;;;;14.32;3.55;;;12.20;87.00;;;;;;9172808;19;20021;-72
2023/10/14 07:37:16;;;;;;;12.90;2.03;;;12.30;87.70;;;;;;9168475;19;20018;-74
2023/10/14 07:40:27;;;;;;;11.65;2.08;;;12.30;87.70;;;;;;9174159;19;20368;-72
2023/10/14 07:43:33;;;;;;;21.33;2.67;;;12.30;87.80;;;;;;9173933;19;20014;-72
2023/10/14 07:46:44;;;;;;;15.40;2.28;;;12.40;87.80;;;;;;9174372;19;20490;-73
2023/10/14 07:49:50;;;;;;;12.80;2.00;;;12.40;87.90;;;;;;9172206;19;20035;-72
2023/10/14 07:53:07;;;;;;;16.80;1.98;;;12.40;87.90;;;;;;9170966;19;20007;-72
2023/10/14 07:56:12;;;;;;;19.45;3.30;;;12.50;87.80;;;;;;9171960;19;20018;-73
2023/10/14 07:59:20;;;;;;;12.40;2.92;;;12.60;87.90;;;;;;9172211;19;20358;-74
2023/10/14 08:02:29;;;;;;;13.68;2.47;;;12.70;88.10;;;;;;9172120;19;20044;-74
2023/10/14 08:05:40;;;;;;;14.35;2.03;;;12.80;88.20;;;;;;9171720;19;20015;-73
2023/10/14 08:08:47;;;;;;;19.65;2.50;;;12.90;88.20;;;;;;9172597;19;20014;-74
2023/10/14 08:11:55;;;;;;;17.65;2.08;;;13.00;88.20;;;;;;9169077;19;20014;-72
2023/10/14 08:15:00;;;;;;;14.70;2.45;;;13.10;88.20;;;;;;9172438;19;20010;-74
2023/10/14 08:18:13;;;;;;;15.93;2.08;;;13.20;88.10;;;;;;9170370;19;20021;-74
2023/10/14 08:21:18;;;;;;;18.65;2.83;;;13.40;88.10;;;;;;9173413;19;20112;-74
2023/10/14 08:24:26;;;;;;;11.73;2.35;;;13.40;87.90;;;;;;9171954;19;20491;-73
2023/10/14 08:27:33;;;;;;;17.05;2.00;;;13.60;87.90;;;;;;9171355;19;20354;-73
2023/10/14 08:30:50;;;;;;;17.80;2.55;;;13.70;87.80;;;;;;9166200;19;20026;-73
2023/10/14 08:33:59;;;;;;;17.25;2.20;;;13.70;87.60;;;;;;9170812;19;20487;-73
2023/10/14 08:37:07;;;;;;;19.23;2.20;;;13.80;87.50;;;;;;9168924;19;20010;-74
2023/10/14 08:40:16;;;;;;;14.00;2.08;;;13.90;87.30;;;;;;9173281;19;20014;-75
2023/10/14 08:43:26;;;;;;;21.52;2.60;;;14.00;87.20;;;;;;9172876;19;20026;-73
2023/10/14 08:46:35;;;;;;;14.55;1.92;;;14.10;87.00;;;;;;9169676;19;20018;-73
2023/10/14 08:49:47;;;;;;;15.32;3.35;;;14.20;87.00;;;;;;9169379;19;20030;-73
2023/10/14 08:52:54;;;;;;;12.60;2.53;;;14.20;86.70;;;;;;9172025;19;20015;-73
2023/10/14 08:56:02;;;;;;;24.20;4.50;;;14.30;86.70;;;;;;9170312;19;20015;-73
2023/10/14 08:59:07;;;;;;;9.10;1.95;;;14.30;86.50;;;;;;9170061;19;20471;-72
2023/10/14 09:02:15;;;;;;;15.27;2.38;;;14.40;86.50;;;;;;9168108;19;20015;-73
2023/10/14 09:05:26;;;;;;;18.60;2.83;;;14.40;86.20;;;;;;9167188;19;20632;-73
2023/10/14 09:08:34;;;;;;;21.65;2.80;;;14.50;86.00;;;;;;9167475;19;20025;-73
2023/10/14 09:11:40;;;;;;;11.43;2.10;;;14.50;85.90;;;;;;9168210;19;20043;-72
2023/10/14 09:14:50;;;;;;;16.05;2.88;;;14.50;85.80;;;;;;9167310;19;20014;-73
2023/10/14 09:17:58;;;;;;;10.48;1.83;;;14.60;85.80;;;;;;9164668;19;20021;-73
2023/10/14 09:21:09;;;;;;;10.15;2.22;;;14.60;85.50;;;;;;9172207;19;20018;-73
2023/10/14 09:24:18;;;;;;;19.40;2.33;;;14.70;85.40;;;;;;9169353;19;20030;-73
2023/10/14 09:27:26;;;;;;;13.93;2.05;;;14.70;85.30;;;;;;9169143;19;20356;-74
2023/10/14 09:30:33;;;;;;;12.68;2.00;;;14.80;85.30;;;;;;9165964;19;20528;-74
2023/10/14 09:33:42;;;;;;;18.38;3.97;;;14.90;85.10;;;;;;9170048;19;20051;-74
2023/10/14 09:36:53;;;;;;;14.48;1.88;;;14.90;85.00;;;;;;9167413;19;20023;-73
2023/10/14 09:40:08;;;;;;;13.60;2.45;;;15.00;84.80;;;;;;9167870;19;20021;-74
2023/10/14 09:43:15;;;;;;;22.88;2.15;;;15.10;84.80;;;;;;9168546;19;20023;-74
2023/10/14 09:46:23;;;;;;;14.93;2.60;;;15.20;84.70;;;;;;9177179;19;20022;-74
2023/10/14 09:49:30;;;;;;;15.85;2.30;;;15.20;84.60;;;;;;9171806;19;20014;-74
2023/10/14 09:52:42;;;;;;;16.00;2.33;;;15.30;84.40;;;;;;9171756;19;20014;-74
2023/10/14 09:55:48;;;;;;;17.80;3.33;;;15.40;84.30;;;;;;9169906;19;20018;-73
2023/10/14 09:58:56;;;;;;;18.05;2.55;;;15.50;84.00;;;;;;9168175;19;20014;-75
2023/10/14 10:02:02;;;;;;;17.55;2.60;;;15.60;83.90;;;;;;9168115;19;20334;-74
2023/10/14 10:05:12;;;;;;;14.48;1.65;;;15.70;83.70;;;;;;9166966;19;20041;-73
2023/10/14 10:08:38;;;;;;;18.42;2.20;;;15.90;83.50;;;;;;9168373;19;20591;-73
2023/10/14 10:11:50;;;;;;;15.90;2.22;;;16.00;83.30;;;;;;9165730;19;20018;-74
2023/10/14 10:15:02;;;;;;;18.52;3.72;;;16.10;83.20;;;;;;9168469;19;20048;-74
2023/10/14 10:18:12;;;;;;;15.70;2.90;;;16.30;83.10;;;;;;9163846;19;20025;-74
2023/10/14 10:21:20;;;;;;;12.45;2.22;;;16.30;82.80;;;;;;9165146;19;20066;-73
2023/10/14 10:24:38;;;;;;;9.65;2.47;;;16.40;82.50;;;;;;9167718;19;20356;-74
2023/10/14 10:27:49;;;;;;;15.32;2.17;;;16.50;81.90;;;;;;9166975;19;20026;-74
2023/10/14 10:30:58;;;;;;;13.73;2.13;;;16.60;82.00;;;;;;9162042;19;20407;-74
2023/10/14 10:34:07;;;;;;;8.57;1.67;;;16.60;81.90;;;;;;9164726;19;20462;-73
2023/10/14 10:37:21;;;;;;;15.02;2.60;;;16.70;82.30;;;;;;9166121;19;20487;-74
2023/10/14 10:40:30;;;;;;;19.10;2.33;;;16.90;81.40;;;;;;9167733;19;20018;-73
2023/10/14 10:43:39;;;;;;;12.05;1.88;;;17.00;81.30;;;;;;9165562;19;20018;-73
2023/10/14 10:46:48;;;;;;;9.05;1.63;;;17.10;81.00;;;;;;9166731;19;20018;-73
2023/10/14 10:49:59;;;;;;;14.93;2.10;;;17.20;80.80;;;;;;9165130;19;20006;-73
2023/10/14 10:53:21;;;;;;;8.40;1.75;;;17.30;80.70;;;;;;9164884;19;20010;-73
2023/10/14 10:56:33;;;;;;;11.48;1.75;;;17.40;80.10;;;;;;9165540;19;20037;-72
2023/10/14 10:59:40;;;;;;;9.43;1.45;;;17.50;80.40;;;;;;9162898;19;20014;-73
2023/10/14 11:02:50;;;;;;;9.00;1.98;;;17.60;79.60;;;;;;9162126;19;20017;-74
2023/10/14 11:05:56;;;;;;;10.55;1.80;;;17.60;79.30;;;;;;9163342;19;20022;-73
2023/10/14 11:09:04;;;;;;;7.90;2.00;;;17.60;78.90;;;;;;9166061;19;20018;-73
2023/10/14 11:12:14;;;;;;;5.50;1.42;;;17.60;78.50;;;;;;9164411;19;20018;-73
2023/10/14 11:15:22;;;;;;;9.98;1.90;;;17.60;77.90;;;;;;9165045;19;20015;-73
2023/10/14 11:18:30;;;;;;;10.15;1.42;;;17.50;77.80;;;;;;9161706;19;20536;-73
2023/10/14 11:21:46;;;;;;;10.93;1.75;;;17.50;77.70;;;;;;9163064;19;20372;-73
2023/10/14 11:24:51;;;;;;;8.93;1.60;;;17.50;77.70;;;;;;9164165;19;20022;-73
2023/10/14 11:28:02;;;;;;;8.60;1.40;;;17.50;77.50;;;;;;9163672;19;20022;-74
2023/10/14 11:31:09;;;;;;;6.28;1.25;;;17.50;77.40;;;;;;9165447;19;20019;-72
2023/10/14 11:34:17;;;;;;;11.07;1.50;;;17.50;77.30;;;;;;9164854;19;20014;-73
2023/10/14 11:37:22;;;;;;;12.73;1.45;;;17.50;77.30;;;;;;9163814;19;20018;-73
2023/10/14 11:40:35;;;;;;;8.25;1.67;;;17.50;77.20;;;;;;9165551;19;20007;-70
2023/10/14 11:43:47;;;;;;;8.70;1.50;;;17.60;76.80;;;;;;9171999;19;20014;-71
2023/10/14 11:46:54;;;;;;;8.88;1.85;;;17.60;76.80;;;;;;9172029;19;20030;-73
2023/10/14 11:50:00;;;;;;;11.70;1.60;;;17.60;77.00;;;;;;9171769;19;20018;-72
2023/10/14 11:53:08;;;;;;;5.90;1.35;;;17.70;76.90;;;;;;9172048;19;20030;-72
2023/10/14 11:56:15;;;;;;;12.23;2.25;;;17.70;76.50;;;;;;9168297;19;20168;-72
2023/10/14 11:59:25;;;;;;;10.27;1.85;;;17.80;76.30;;;;;;9168278;19;20038;-72
2023/10/14 12:02:31;;;;;;;8.90;1.60;;;17.80;76.10;;;;;;9170200;19;20040;-73
2023/10/14 12:05:39;;;;;;;7.18;1.52;;;17.80;76.00;;;;;;9169766;19;20021;-72
2023/10/14 12:08:45;;;;;;;8.43;1.85;;;17.90;75.90;;;;;;9168613;19;20728;-72
2023/10/14 12:11:52;;;;;;;6.32;1.58;;;17.90;75.80;;;;;;9169684;19;20034;-72
2023/10/14 12:15:05;;;;;;;7.68;1.10;;;18.00;75.70;;;;;;9167024;19;20025;-73
2023/10/14 12:18:13;;;;;;;10.75;1.38;;;18.00;75.20;;;;;;9165707;19;20021;-71
2023/10/14 12:21:19;;;;;;;12.57;1.70;;;18.10;75.10;;;;;;9165299;19;20018;-71
2023/10/14 12:24:28;;;;;;;8.95;1.30;;;18.00;74.70;;;;;;9166501;19;20022;-71
2023/10/14 12:27:33;;;;;;;7.40;1.95;;;18.00;74.50;;;;;;9170349;19;20044;-70
2023/10/14 12:30:43;;;;;;;12.18;1.88;;;18.00;74.20;;;;;;9165747;19;20025;-71
2023/10/14 12:33:49;;;;;;;5.85;1.55;;;17.90;73.90;;;;;;9171165;19;20053;-71
2023/10/14 12:36:56;;;;;;;8.38;1.25;;;17.80;74.00;;;;;;9168613;19;20014;-71
2023/10/14 12:40:11;;;;;;;7.53;1.38;;;17.70;74.60;;;;;;9166548;19;20125;-71
2023/10/14 12:43:27;;;;;;;4.55;1.58;;;17.70;73.90;;;;;;9170995;19;20436;-72
2023/10/14 12:46:40;;;;;;;;;;;17.60;73.80;;;;;;9172027;19;20455;-71
2023/10/14 12:49:50;;;;;;;3.33;1.25;;;17.50;74.30;;;;;;9168679;19;19929;-71
2023/10/14 12:52:59;;;;;;;8.63;1.17;;;17.40;75.00;;;;;;9170101;19;20025;-71
2023/10/14 12:56:09;;;;;;;11.43;1.75;;;17.30;74.20;;;;;;9169368;19;20015;-70
2023/10/14 12:59:18;;;;;;;5.53;1.20;;;17.20;74.20;;;;;;9170154;19;20352;-71
2023/10/14 13:02:28;;;;;;;8.63;1.30;;;17.10;73.70;;;;;;9171799;19;20010;-71
2023/10/14 13:05:34;;;;;;;4.22;0.88;;;17.00;73.30;;;;;;9171834;19;20412;-71
2023/10/14 13:08:41;;;;;;;6.57;1.45;;;16.90;73.30;;;;;;9173971;19;20011;-72
2023/10/14 13:11:46;;;;;;;7.38;1.33;;;16.80;73.20;;;;;;9170571;19;20021;-70
2023/10/14 13:14:54;;;;;;;13.15;1.70;;;16.70;73.10;;;;;;9170012;19;20018;-70
2023/10/14 13:18:05;;;;;;;13.07;2.17;;;16.20;72.70;;;;;;9167593;19;20496;-72
2023/10/14 13:21:14;;;;;;;11.18;1.45;;;16.50;72.80;;;;;;9168392;19;20373;-71
2023/10/14 13:24:20;;;;;;;12.25;2.10;;;16.40;73.00;;;;;;9168828;19;20025;-70
2023/10/14 13:27:27;;;;;;;8.15;1.70;;;16.30;72.90;;;;;;9166957;19;20094;-72
2023/10/14 13:30:33;;;;;;;6.65;1.80;;;16.20;72.90;;;;;;9162822;19;20015;-69
2023/10/14 13:33:46;;;;;;;4.72;1.40;;;16.10;73.00;;;;;;9167968;19;20365;-70
2023/10/14 13:36:52;;;;;;;9.90;2.10;;;16.10;73.10;;;;;;9169051;19;20025;-72
2023/10/14 13:40:06;;;;;;;11.70;2.80;;;16.10;73.30;;;;;;9166497;19;20024;-73
2023/10/14 13:43:13;;;;;;;8.95;1.92;;;16.00;73.30;;;;;;9170227;19;20121;-74
2023/10/14 13:46:21;;;;;;;7.22;1.08;;;15.90;73.30;;;;;;9168630;19;20667;-75
2023/10/14 13:49:29;;;;;;;5.18;0.95;;;15.80;73.40;;;;;;9168867;19;20590;-74
2023/10/14 13:52:36;;;;;;;6.25;1.05;;;15.60;73.30;;;;;;9167815;19;20014;-73
2023/10/14 13:55:43;;;;;;;7.05;1.02;;;15.50;73.70;;;;;;9170276;19;20018;-72
2023/10/14 13:58:51;;;;;;;7.00;1.50;;;15.30;73.60;;;;;;9169668;19;20647;-73
2023/10/14 14:01:57;;;;;;;6.30;0.90;;;15.20;73.80;;;;;;9170120;19;20052;-75
2023/10/14 14:05:08;;;;;;;9.60;1.17;;;15.10;74.00;;;;;;9166676;19;20051;-74
2023/10/14 14:08:13;;;;;;;7.28;1.45;;;15.00;74.20;;;;;;9167252;19;20074;-74
2023/10/14 14:11:21;;;;;;;5.80;1.15;;;14.90;74.40;;;;;;9167299;19;20497;-73
2023/10/14 14:14:27;;;;;;;10.30;2.00;;;14.80;74.50;;;;;;9168407;19;20069;-73
2023/10/14 14:17:34;;;;;;;8.73;1.10;;;14.70;74.70;;;;;;9167210;19;20022;-73
2023/10/14 14:20:43;;;;;;;4.28;1.25;;;14.60;74.70;;;;;;9168061;19;20026;-73
2023/10/14 14:23:52;;;;;;;14.65;1.63;;;14.40;74.70;;;;;;9168487;19;20077;-72
2023/10/14 14:26:57;;;;;;;9.45;1.58;;;14.40;74.80;;;;;;9168536;19;20082;-73
2023/10/14 14:30:07;;;;;;;3.90;0.77;;;14.30;74.90;;;;;;9164941;19;20486;-73
2023/10/14 14:33:12;;;;;;;10.32;1.75;;;14.20;75.00;;;;;;9167890;19;20070;-74
2023/10/14 14:36:23;;;;;;;11.63;1.40;;;14.10;75.10;;;;;;9168631;19;20018;-73
2023/10/14 14:39:29;;;;;;;16.42;1.50;;;14.10;75.30;;;;;;9166340;19;20505;-73
2023/10/14 14:42:37;;;;;;;10.13;1.58;;;14.00;75.40;;;;;;9168336;19;20022;-72
2023/10/14 14:45:47;;;;;;;13.15;1.42;;;14.00;75.50;;;;;;9163065;19;20403;-71
2023/10/14 14:48:59;;;;;;;8.43;1.30;;;14.00;75.70;;;;;;9164610;19;20372;-72
2023/10/14 14:52:07;;;;;;;6.95;1.40;;;14.00;75.70;;;;;;9166811;19;20445;-71
2023/10/14 14:55:15;;;;;;;7.85;1.63;;;13.90;75.80;;;;;;9167348;19;20026;-72
2023/10/14 14:58:20;;;;;;;6.68;0.98;;;13.90;75.90;;;;;;9164407;19;20024;-72
2023/10/14 15:01:31;;;;;;;15.40;2.38;;;13.90;75.90;;;;;;9164177;19;20021;-73
2023/10/14 15:04:38;;;;;;;14.48;2.35;;;13.80;75.90;;;;;;9164281;19;20014;-73
2023/10/14 15:07:48;;;;;;;11.07;1.63;;;13.80;75.90;;;;;;9164691;19;20060;-71
2023/10/14 15:10:57;;;;;;;9.98;1.67;;;13.80;75.80;;;;;;9165741;19;20459;-72
2023/10/14 15:14:06;;;;;;;7.43;1.38;;;13.70;75.90;;;;;;9164581;19;20025;-74
2023/10/14 15:17:11;;;;;;;10.38;1.77;;;13.70;75.90;;;;;;9173578;19;20808;-71
2023/10/14 15:20:20;;;;;;;16.77;2.03;;;13.70;75.90;;;;;;9174339;19;20018;-71
2023/10/14 15:23:28;;;;;;;12.30;2.42;;;13.60;75.80;;;;;;9174464;19;20018;-71
2023/10/14 15:26:36;;;;;;;19.08;2.17;;;13.60;75.70;;;;;;9173286;19;20018;-71
2023/10/14 15:29:42;;;;;;;16.58;2.13;;;13.60;75.70;;;;;;9168892;19;20031;-71
2023/10/14 15:32:51;;;;;;;11.65;2.33;;;13.50;75.70;;;;;;9174172;19;20002;-70
2023/10/14 15:36:11;;;;;;;12.73;1.95;;;13.50;75.70;;;;;;9168080;19;20015;-71
2023/10/14 15:39:30;;;;;;;11.15;1.65;;;13.40;75.40;;;;;;9174261;19;20029;-72
2023/10/14 15:42:37;;;;;;;11.27;1.80;;;13.40;75.50;;;;;;9172484;19;20476;-70
2023/10/14 15:45:44;;;;;;;14.55;2.05;;;13.30;75.40;;;;;;9174480;19;20029;-70
2023/10/14 15:48:51;;;;;;;8.15;2.10;;;13.30;75.40;;;;;;9173941;19;20018;-71
2023/10/14 15:52:00;;;;;;;11.95;2.03;;;13.30;75.20;;;;;;9171753;19;20025;-68
2023/10/14 15:55:10;;;;;;;14.25;2.00;;;13.20;75.20;;;;;;9172208;19;20014;-74
2023/10/14 15:58:19;;;;;;;9.55;1.40;;;13.20;75.20;;;;;;9174236;19;20104;-72
2023/10/14 16:01:44;;;;;;;7.82;1.48;;;13.20;75.20;;;;;;9171109;19;20155;-72
2023/10/14 16:04:52;;;;;;;16.58;2.08;;;13.20;75.20;;;;;;9171468;19;20528;-72
2023/10/14 16:08:00;;;;;;;10.95;1.90;;;13.10;75.20;;;;;;9171540;19;20034;-75
2023/10/14 16:11:14;;;;;;;9.75;1.60;;;13.10;75.10;;;;;;9185657;19;20573;-77
2023/10/14 16:14:20;;;;;;;14.88;2.15;;;13.00;74.90;;;;;;9181626;19;20094;-73
2023/10/14 16:17:28;;;;;;;8.90;1.67;;;13.00;74.90;;;;;;9176403;19;20014;-74
2023/10/14 16:20:33;;;;;;;10.95;2.10;;;13.00;74.90;;;;;;9172148;19;20034;-73